createdAt,value
2022-10-18T00:00:04.457Z,10.57
2022-10-18T00:02:38.034Z,10.70
2022-10-18T00:07:46.429Z,9.25
2022-10-18T00:10:24.994Z,9.80
2022-10-18T00:12:58.790Z,10.02
2022-10-18T00:18:05.710Z,8.70
2022-10-18T00:23:14.133Z,8.45
2022-10-18T00:25:47.673Z,9.07
2022-10-18T00:30:54.610Z,9.18
2022-10-18T00:36:03.454Z,8.20
2022-10-18T00:38:37.455Z,8.18
2022-10-18T00:41:13.303Z,7.25
2022-10-18T00:43:57.476Z,7.60
2022-10-18T00:49:13.229Z,7.50
2022-10-18T00:51:51.647Z,7.32
2022-10-18T00:54:26.164Z,7.00
2022-10-18T00:57:00.237Z,6.75
2022-10-18T00:59:34.416Z,7.65
2022-10-18T01:02:08.440Z,7.03
2022-10-18T01:04:42.073Z,6.13
2022-10-18T01:10:01.555Z,6.43
2022-10-18T01:12:46.411Z,6.53
2022-10-18T01:15:27.600Z,6.10
2022-10-18T01:18:09.441Z,6.80
2022-10-18T01:21:10.547Z,6.50
2022-10-18T01:24:19.709Z,6.50
2022-10-18T01:27:16.119Z,7.55
2022-10-18T01:30:05.337Z,6.75
2022-10-18T01:32:44.206Z,6.70
2022-10-18T01:35:23.334Z,7.13
2022-10-18T01:38:00.867Z,6.72
2022-10-18T01:40:36.645Z,6.63
2022-10-18T01:43:12.135Z,7.18
2022-10-18T01:45:45.913Z,6.38
2022-10-18T01:48:21.539Z,6.22
2022-10-18T01:50:55.370Z,6.45
2022-10-18T01:53:31.659Z,6.82
2022-10-18T01:56:34.040Z,5.95
2022-10-18T01:59:25.165Z,6.10
2022-10-18T02:02:11.063Z,5.72
2022-10-18T02:04:52.407Z,6.25
2022-10-18T02:07:32.960Z,5.82
2022-10-18T02:10:12.236Z,5.93
2022-10-18T02:12:48.164Z,6.07
2022-10-18T02:15:28.205Z,6.05
2022-10-18T02:18:04.909Z,5.75
2022-10-18T02:20:40.561Z,7.03
2022-10-18T02:23:16.587Z,6.65
2022-10-18T02:25:50.544Z,6.30
2022-10-18T02:31:08.471Z,7.07
2022-10-18T02:33:52.906Z,6.10
2022-10-18T02:36:33.073Z,6.25
2022-10-18T02:39:14.540Z,6.40
2022-10-18T02:41:48.799Z,6.20
2022-10-18T02:44:22.663Z,5.95
2022-10-18T02:46:56.875Z,6.55
2022-10-18T02:49:30.561Z,6.63
2022-10-18T02:52:05.987Z,6.57
2022-10-18T02:54:39.682Z,6.35
2022-10-18T02:59:46.635Z,5.50
2022-10-18T03:04:53.551Z,6.27
2022-10-18T03:07:28.951Z,6.60
2022-10-18T03:10:02.720Z,6.15
2022-10-18T03:15:10.242Z,6.18
2022-10-18T03:17:44.252Z,6.63
2022-10-18T03:20:18.067Z,6.55
2022-10-18T03:25:26.642Z,6.50
2022-10-18T03:28:00.402Z,6.78
2022-10-18T03:33:07.396Z,6.32
2022-10-18T03:38:15.828Z,6.20
2022-10-18T03:40:49.463Z,6.30
2022-10-18T03:45:57.050Z,6.45
2022-10-18T03:48:30.861Z,6.60
2022-10-18T03:51:04.532Z,6.85
2022-10-18T03:53:39.639Z,6.65
2022-10-18T03:56:13.256Z,6.70
2022-10-18T04:01:20.196Z,6.47
2022-10-18T04:03:55.412Z,6.78
2022-10-18T04:06:29.108Z,6.80
2022-10-18T04:11:43.152Z,6.60
2022-10-18T04:14:16.728Z,6.97
2022-10-18T04:16:50.302Z,6.68
2022-10-18T04:21:57.294Z,7.15
2022-10-18T04:27:06.170Z,6.50
2022-10-18T04:29:39.910Z,7.45
2022-10-18T04:32:13.576Z,7.20
2022-10-18T04:37:20.479Z,7.63
2022-10-18T04:39:55.495Z,7.60
2022-10-18T04:42:29.233Z,8.48
2022-10-18T04:47:36.276Z,7.97
2022-10-18T04:52:43.727Z,8.18
2022-10-18T04:55:18.885Z,7.50
2022-10-18T04:57:52.466Z,7.95
2022-10-18T05:00:26.117Z,7.65
2022-10-18T05:05:49.924Z,8.23
2022-10-18T05:08:26.610Z,9.80
2022-10-18T05:11:02.134Z,8.55
2022-10-18T05:13:35.787Z,10.10
2022-10-18T05:18:43.242Z,8.23
2022-10-18T05:21:17.917Z,7.80
2022-10-18T05:23:51.508Z,17.42
2022-10-18T05:26:26.592Z,13.48
2022-10-18T05:29:00.354Z,8.40
2022-10-18T05:31:34.134Z,14.43
2022-10-18T05:36:41.076Z,8.57
2022-10-18T05:41:49.372Z,7.47
2022-10-18T05:44:23.205Z,7.25
2022-10-18T05:49:30.029Z,9.77
2022-10-18T05:52:03.702Z,8.30
2022-10-18T05:57:12.187Z,7.47
2022-10-18T05:59:48.380Z,8.57
2022-10-18T06:02:33.020Z,8.48
2022-10-18T06:05:07.118Z,8.50
2022-10-18T06:07:43.206Z,9.45
2022-10-18T06:10:17.083Z,8.27
2022-10-18T06:12:55.117Z,8.07
2022-10-18T06:15:28.827Z,8.75
2022-10-18T06:18:02.454Z,8.77
2022-10-18T06:23:09.643Z,7.70
2022-10-18T06:25:43.277Z,8.10
2022-10-18T06:30:51.661Z,8.60
2022-10-18T06:36:00.576Z,8.52
2022-10-18T06:38:34.917Z,7.93
2022-10-18T06:41:09.911Z,8.32
2022-10-18T06:43:45.112Z,8.15
2022-10-18T06:46:18.769Z,8.45
2022-10-18T06:48:52.398Z,7.30
2022-10-18T06:54:16.841Z,8.30
2022-10-18T06:56:51.845Z,9.50
2022-10-18T07:02:07.241Z,7.47
2022-10-18T07:04:45.667Z,7.80
2022-10-18T07:07:22.687Z,7.82
2022-10-18T07:09:58.565Z,7.78
2022-10-18T07:15:09.790Z,7.75
2022-10-18T07:17:45.346Z,7.85
2022-10-18T07:20:19.065Z,7.55
2022-10-18T07:22:56.971Z,7.07
2022-10-18T07:25:30.695Z,8.70
2022-10-18T07:28:04.419Z,7.78
2022-10-18T07:30:39.914Z,7.85
2022-10-18T07:33:14.948Z,7.63
2022-10-18T07:35:48.537Z,7.53
2022-10-18T07:38:22.943Z,8.63
2022-10-18T07:40:58.713Z,8.77
2022-10-18T07:43:32.495Z,7.13
2022-10-18T07:46:07.772Z,8.07
2022-10-18T07:48:41.665Z,8.45
2022-10-18T07:51:15.857Z,7.25
2022-10-18T07:53:49.829Z,8.30
2022-10-18T07:56:23.521Z,9.18
2022-10-18T07:58:58.447Z,7.57
2022-10-18T08:01:36.178Z,8.23
2022-10-18T08:04:13.979Z,8.85
2022-10-18T08:06:49.842Z,8.50
2022-10-18T08:09:23.445Z,7.85
2022-10-18T08:12:00.073Z,8.07
2022-10-18T08:14:33.801Z,7.53
2022-10-18T08:17:08.883Z,8.27
2022-10-18T08:19:52.903Z,9.60
2022-10-18T08:22:37.949Z,8.38
2022-10-18T08:25:11.732Z,7.95
2022-10-18T08:27:45.406Z,9.25
2022-10-18T08:30:19.187Z,8.43
2022-10-18T08:32:54.498Z,7.85
2022-10-18T08:35:28.086Z,7.38
2022-10-18T08:38:01.788Z,8.95
2022-10-18T08:40:36.031Z,8.27
2022-10-18T08:43:21.598Z,8.57
2022-10-18T08:46:03.974Z,9.20
2022-10-18T08:48:43.630Z,16.05
2022-10-18T08:51:23.418Z,10.32
2022-10-18T08:54:04.551Z,10.48
2022-10-18T08:56:40.103Z,10.65
2022-10-18T08:59:14.809Z,9.90
2022-10-18T09:02:01.086Z,9.10
2022-10-18T09:04:48.541Z,8.48
2022-10-18T09:07:39.648Z,9.82
2022-10-18T09:10:21.663Z,9.23
2022-10-18T09:13:15.714Z,8.83
2022-10-18T09:15:53.491Z,9.65
2022-10-18T09:18:47.527Z,9.50
2022-10-18T09:21:28.118Z,10.52
2022-10-18T09:24:13.187Z,10.00
2022-10-18T09:26:48.677Z,9.93
2022-10-18T09:29:41.871Z,10.38
2022-10-18T09:32:28.877Z,9.90
2022-10-18T09:35:13.439Z,10.52
2022-10-18T09:37:49.889Z,11.25
2022-10-18T09:40:28.572Z,10.65
2022-10-18T09:43:07.756Z,10.50
2022-10-18T09:45:44.451Z,10.30
2022-10-18T09:48:23.706Z,10.82
2022-10-18T09:51:02.182Z,10.65
2022-10-18T09:53:44.562Z,10.27
2022-10-18T09:56:24.015Z,10.57
2022-10-18T09:58:57.699Z,13.45
2022-10-18T10:01:33.490Z,10.60
2022-10-18T10:04:07.010Z,10.25
2022-10-18T10:06:51.470Z,11.68
2022-10-18T10:09:29.794Z,10.10
2022-10-18T10:12:03.335Z,11.18
2022-10-18T10:14:45.545Z,12.50
2022-10-18T10:17:25.241Z,11.82
2022-10-18T10:20:03.926Z,13.98
2022-10-18T10:22:40.249Z,15.32
2022-10-18T10:25:24.923Z,14.32
2022-10-18T10:28:04.470Z,13.90
2022-10-18T10:30:39.799Z,13.95
2022-10-18T10:33:34.813Z,12.73
2022-10-18T10:36:19.396Z,14.30
2022-10-18T10:39:06.418Z,14.23
2022-10-18T10:41:42.824Z,14.52
2022-10-18T10:44:20.471Z,13.77
2022-10-18T10:46:55.070Z,13.73
2022-10-18T10:49:43.950Z,12.73
2022-10-18T10:52:28.366Z,13.73
2022-10-18T10:55:23.540Z,13.43
2022-10-18T10:57:58.913Z,12.68
2022-10-18T11:00:46.940Z,12.98
2022-10-18T11:03:28.917Z,13.35
2022-10-18T11:06:04.797Z,13.68
2022-10-18T11:08:43.757Z,14.13
2022-10-18T11:11:28.078Z,13.75
2022-10-18T11:14:27.134Z,12.30
2022-10-18T11:17:14.805Z,12.90
2022-10-18T11:20:03.847Z,14.02
2022-10-18T11:22:44.546Z,12.98
2022-10-18T11:25:24.443Z,12.60
2022-10-18T11:28:05.963Z,12.70
2022-10-18T11:30:56.674Z,13.10
2022-10-18T11:34:07.091Z,12.98
2022-10-18T11:36:45.488Z,13.93
2022-10-18T11:39:37.634Z,13.25
2022-10-18T11:42:20.948Z,13.73
2022-10-18T11:45:13.561Z,13.07
2022-10-18T11:50:37.025Z,12.23
2022-10-18T11:53:20.214Z,13.23
2022-10-18T11:56:06.708Z,13.40
2022-10-18T11:58:54.778Z,12.88
2022-10-18T12:01:36.995Z,13.32
2022-10-18T12:04:24.862Z,13.90
2022-10-18T12:07:04.168Z,13.45
2022-10-18T12:09:41.308Z,13.60
2022-10-18T12:12:19.527Z,13.40
2022-10-18T12:14:59.026Z,13.48
2022-10-18T12:17:46.121Z,14.68
2022-10-18T12:20:36.685Z,13.50
2022-10-18T12:23:15.956Z,13.00
2022-10-18T12:25:53.996Z,13.98
2022-10-18T12:28:35.486Z,14.27
2022-10-18T12:31:20.373Z,15.00
2022-10-18T12:33:58.648Z,14.50
2022-10-18T12:36:58.727Z,14.63
2022-10-18T12:39:45.146Z,15.27
2022-10-18T12:42:37.399Z,17.13
2022-10-18T12:45:26.745Z,16.33
2022-10-18T12:48:06.907Z,15.50
2022-10-18T12:50:47.326Z,15.43
2022-10-18T12:53:30.105Z,15.18
2022-10-18T12:56:38.323Z,15.75
2022-10-18T12:59:51.460Z,15.15
2022-10-18T13:02:37.286Z,14.05
2022-10-18T13:05:52.923Z,15.63
2022-10-18T13:08:43.739Z,14.93
2022-10-18T13:11:36.962Z,14.80
2022-10-18T13:15:13.446Z,15.98
2022-10-18T13:17:57.973Z,16.00
2022-10-18T13:20:45.809Z,16.52
2022-10-18T13:23:39.177Z,15.95
2022-10-18T13:26:26.780Z,16.90
2022-10-18T13:29:07.419Z,16.05
2022-10-18T13:31:45.837Z,15.77
2022-10-18T13:34:33.274Z,16.02
2022-10-18T13:37:20.154Z,15.35
2022-10-18T13:40:24.877Z,20.70
2022-10-18T13:43:29.759Z,16.58
2022-10-18T13:46:07.370Z,17.10
2022-10-18T13:48:49.740Z,16.42
2022-10-18T13:51:59.525Z,15.73
2022-10-18T13:55:05.789Z,17.52
2022-10-18T13:57:59.336Z,17.20
2022-10-18T14:04:02.639Z,17.17
2022-10-18T14:06:41.421Z,17.02
2022-10-18T14:09:25.924Z,16.40
2022-10-18T14:12:24.365Z,17.70
2022-10-18T14:15:08.234Z,17.25
2022-10-18T14:17:48.400Z,17.52
2022-10-18T14:20:32.726Z,16.88
2022-10-18T14:23:17.139Z,17.33
2022-10-18T14:25:50.675Z,17.10
2022-10-18T14:28:36.154Z,16.27
2022-10-18T14:31:14.970Z,16.73
2022-10-18T14:33:57.569Z,17.92
2022-10-18T14:36:42.617Z,17.13
2022-10-18T14:39:22.374Z,16.83
2022-10-18T14:41:57.410Z,16.67
2022-10-18T14:44:33.160Z,18.98
2022-10-18T14:47:17.736Z,16.80
2022-10-18T14:49:58.252Z,20.80
2022-10-18T14:52:35.819Z,17.98
2022-10-18T14:55:19.652Z,17.33
2022-10-18T14:57:55.558Z,17.35
2022-10-18T15:00:36.531Z,19.88
2022-10-18T15:03:15.521Z,19.27
2022-10-18T15:05:59.645Z,18.02
2022-10-18T15:08:38.073Z,20.38
2022-10-18T15:11:14.985Z,20.00
2022-10-18T15:13:53.624Z,19.88
2022-10-18T15:16:30.449Z,19.90
2022-10-18T15:19:07.359Z,21.77
2022-10-18T15:22:07.981Z,23.70
2022-10-18T15:25:04.430Z,23.55
2022-10-18T15:30:27.664Z,37.40
2022-10-18T15:33:03.065Z,26.77
2022-10-18T15:35:38.454Z,23.38
2022-10-18T15:38:18.701Z,22.42
2022-10-18T15:40:52.554Z,18.80
2022-10-18T15:43:39.487Z,15.05
2022-10-18T15:46:32.256Z,13.50
2022-10-18T15:49:19.266Z,12.93
2022-10-18T15:52:17.253Z,8.82
2022-10-18T15:54:52.159Z,7.65
2022-10-18T15:57:29.078Z,6.80
2022-10-18T16:00:19.737Z,8.40
2022-10-18T16:02:53.309Z,6.60
2022-10-18T16:10:35.572Z,4.70
2022-10-18T16:13:09.062Z,5.55
2022-10-18T16:18:18.264Z,5.10
2022-10-18T16:20:51.887Z,6.20
2022-10-18T16:23:28.771Z,5.13
2022-10-18T16:26:03.941Z,5.57
2022-10-18T16:28:40.216Z,6.03
2022-10-18T16:31:17.756Z,6.53
2022-10-18T16:33:52.838Z,14.88
2022-10-18T16:36:29.225Z,7.22
2022-10-18T16:39:07.892Z,6.72
2022-10-18T16:41:42.964Z,6.50
2022-10-18T16:44:17.361Z,7.18
2022-10-18T16:46:53.961Z,8.05
2022-10-18T16:49:29.121Z,7.63
2022-10-18T16:52:04.699Z,8.32
2022-10-18T16:54:38.479Z,9.65
2022-10-18T16:57:13.888Z,9.07
2022-10-18T16:59:47.620Z,10.43
2022-10-18T17:02:21.249Z,8.63
2022-10-18T17:04:54.965Z,6.97
2022-10-18T17:07:28.450Z,6.93
2022-10-18T17:12:36.915Z,7.37
2022-10-18T17:15:11.604Z,10.10
2022-10-18T17:17:46.178Z,8.88
2022-10-18T17:20:23.702Z,7.78
2022-10-18T17:22:57.400Z,5.72
2022-10-18T17:28:31.311Z,6.03
2022-10-18T17:31:08.240Z,8.40
2022-10-18T17:33:42.213Z,7.05
2022-10-18T17:36:17.053Z,5.30
2022-10-18T17:38:53.792Z,6.18
2022-10-18T17:41:28.941Z,7.18
2022-10-18T17:44:07.317Z,6.90
2022-10-18T17:46:42.392Z,7.43
2022-10-18T17:49:17.064Z,6.65
2022-10-18T17:51:50.657Z,6.15
2022-10-18T17:57:02.679Z,4.80
2022-10-18T17:59:40.946Z,4.90
2022-10-18T18:02:14.605Z,5.10
2022-10-18T18:04:51.114Z,5.22
2022-10-18T18:07:24.813Z,5.70
2022-10-18T18:09:58.478Z,6.30
2022-10-18T18:15:09.704Z,4.55
2022-10-18T18:17:56.607Z,4.25
2022-10-18T18:20:31.262Z,4.32
2022-10-18T18:23:04.914Z,4.72
2022-10-18T18:28:11.734Z,6.00
2022-10-18T18:30:46.775Z,5.45
2022-10-18T18:33:20.311Z,4.97
2022-10-18T18:38:31.077Z,5.47
2022-10-18T18:43:43.191Z,7.38
2022-10-18T18:46:18.338Z,9.02
2022-10-18T18:48:53.702Z,9.93
2022-10-18T18:51:30.153Z,10.75
2022-10-18T18:54:04.111Z,11.18
2022-10-18T18:56:38.300Z,12.48
2022-10-18T18:59:14.298Z,14.88
2022-10-18T19:01:49.427Z,15.75
2022-10-18T19:04:23.050Z,15.82
2022-10-18T19:09:30.030Z,13.20
2022-10-18T19:12:03.699Z,11.93
2022-10-18T19:17:12.055Z,9.67
2022-10-18T19:19:45.760Z,8.90
2022-10-18T19:22:19.397Z,10.02
2022-10-18T19:24:53.008Z,9.00
2022-10-18T19:29:59.973Z,8.60
2022-10-18T19:35:11.102Z,9.40
2022-10-18T19:37:44.721Z,9.40
2022-10-18T19:42:51.653Z,9.13
2022-10-18T19:48:02.821Z,9.63
2022-10-18T19:50:36.914Z,8.30
2022-10-18T19:53:10.613Z,9.30
2022-10-18T19:55:44.234Z,9.05
2022-10-18T20:00:54.115Z,9.63
2022-10-18T20:03:30.645Z,9.48
2022-10-18T20:06:05.189Z,9.52
2022-10-18T20:08:39.970Z,8.23
2022-10-18T20:11:15.817Z,9.25
2022-10-18T20:13:50.342Z,8.88
2022-10-18T20:16:28.448Z,9.57
2022-10-18T20:19:08.944Z,9.32
2022-10-18T20:21:44.782Z,9.13
2022-10-18T20:24:18.858Z,9.88
2022-10-18T20:29:31.824Z,8.13
2022-10-18T20:32:12.558Z,9.15
2022-10-18T20:34:50.502Z,9.30
2022-10-18T20:37:26.454Z,9.43
2022-10-18T20:42:34.169Z,8.48
2022-10-18T20:45:08.910Z,9.90
2022-10-18T20:47:44.209Z,11.57
2022-10-18T20:50:21.931Z,9.95
2022-10-18T20:52:55.650Z,9.30
2022-10-18T20:55:30.622Z,8.82
2022-10-18T20:58:10.287Z,8.85
2022-10-18T21:00:46.845Z,8.40
2022-10-18T21:03:20.625Z,8.27
2022-10-18T21:05:55.669Z,8.50
2022-10-18T21:08:32.221Z,8.30
2022-10-18T21:11:07.090Z,9.25
2022-10-18T21:13:42.111Z,8.52
2022-10-18T21:16:15.709Z,8.80
2022-10-18T21:21:26.186Z,8.43
2022-10-18T21:24:06.885Z,9.82
2022-10-18T21:26:41.973Z,10.20
2022-10-18T21:29:21.662Z,11.27
2022-10-18T21:31:59.420Z,11.68
2022-10-18T21:34:33.209Z,11.95
2022-10-18T21:37:08.266Z,11.88
2022-10-18T21:39:44.697Z,11.95
2022-10-18T21:42:18.462Z,12.40
2022-10-18T21:44:52.125Z,11.57
2022-10-18T21:49:59.760Z,10.68
2022-10-18T21:55:09.522Z,11.80
2022-10-18T21:57:43.226Z,10.90
2022-10-18T22:02:50.642Z,11.65
2022-10-18T22:05:27.338Z,11.65
2022-10-18T22:08:05.615Z,11.10
2022-10-18T22:10:39.383Z,11.32
2022-10-18T22:15:48.894Z,10.88
2022-10-18T22:18:22.982Z,12.07
2022-10-18T22:20:56.565Z,9.70
2022-10-18T22:23:35.175Z,10.60
2022-10-18T22:26:11.412Z,11.63
2022-10-18T22:28:50.535Z,11.88
2022-10-18T22:31:28.563Z,12.65
2022-10-18T22:34:04.449Z,12.55
2022-10-18T22:36:38.461Z,11.63
2022-10-18T22:39:19.110Z,10.98
2022-10-18T22:41:56.823Z,11.93
2022-10-18T22:44:34.547Z,13.13
2022-10-18T22:47:08.333Z,11.15
2022-10-18T22:52:18.082Z,12.35
2022-10-18T22:54:56.134Z,12.52
2022-10-18T22:57:30.758Z,12.90
2022-10-18T23:00:05.495Z,12.63
2022-10-18T23:02:42.004Z,12.57
2022-10-18T23:05:15.724Z,12.13
2022-10-18T23:10:26.806Z,12.23
2022-10-18T23:13:00.357Z,12.48
2022-10-18T23:15:35.153Z,13.35
2022-10-18T23:18:08.809Z,13.68
2022-10-18T23:25:55.130Z,13.50
2022-10-18T23:28:28.789Z,13.25
2022-10-18T23:31:07.141Z,13.98
2022-10-18T23:33:41.527Z,12.68
2022-10-18T23:36:15.455Z,13.27
2022-10-18T23:38:52.582Z,13.80
2022-10-18T23:41:27.785Z,13.23
2022-10-18T23:44:02.522Z,12.45
2022-10-18T23:46:36.088Z,13.38
2022-10-18T23:49:09.575Z,13.25
2022-10-18T23:51:43.074Z,12.65
2022-10-18T23:54:16.553Z,12.60
2022-10-18T23:56:51.519Z,12.35
2022-10-18T23:59:25.006Z,12.25
